createdAt,value
2022-12-29T00:00:20.916Z,-8.50
2022-12-29T00:02:23.794Z,-8.49
2022-12-29T00:04:26.600Z,-8.46
2022-12-29T00:06:29.342Z,-8.48
2022-12-29T00:08:41.766Z,-8.49
2022-12-29T00:10:44.544Z,-8.46
2022-12-29T00:13:05.937Z,-8.42
2022-12-29T00:15:27.639Z,-8.51
2022-12-29T00:17:31.028Z,-8.58
2022-12-29T00:19:52.344Z,-8.58
2022-12-29T00:22:13.696Z,-8.56
2022-12-29T00:24:28.114Z,-8.56
2022-12-29T00:26:49.414Z,-8.58
2022-12-29T00:29:10.630Z,-8.59
2022-12-29T00:31:32.500Z,-8.62
2022-12-29T00:33:53.767Z,-8.62
2022-12-29T00:36:01.753Z,-8.61
2022-12-29T00:38:26.858Z,-8.59
2022-12-29T00:41:07.781Z,-8.61
2022-12-29T00:43:29.378Z,-8.70
2022-12-29T00:45:32.037Z,-8.66
2022-12-29T00:47:34.672Z,-8.65
2022-12-29T00:49:37.260Z,-8.69
2022-12-29T00:51:39.965Z,-8.65
2022-12-29T00:53:42.884Z,-8.72
2022-12-29T00:55:45.789Z,-8.65
2022-12-29T00:57:48.403Z,-8.68
2022-12-29T00:59:51.090Z,-8.68
2022-12-29T01:01:54.804Z,-8.60
2022-12-29T01:04:02.146Z,-8.57
2022-12-29T01:06:11.668Z,-8.58
2022-12-29T01:08:14.360Z,-8.61
2022-12-29T01:10:17.187Z,-8.65
2022-12-29T01:12:40.763Z,-8.62
2022-12-29T01:14:43.360Z,-8.67
2022-12-29T01:16:46.449Z,-8.76
2022-12-29T01:18:49.104Z,-8.72
2022-12-29T01:20:52.585Z,-8.72
2022-12-29T01:22:56.731Z,-8.79
2022-12-29T01:24:59.963Z,-8.78
2022-12-29T01:27:02.592Z,-8.75
2022-12-29T01:29:05.313Z,-8.72
2022-12-29T01:31:09.042Z,-8.73
2022-12-29T01:33:11.640Z,-8.77
2022-12-29T01:35:14.458Z,-8.75
2022-12-29T01:37:17.112Z,-8.76
2022-12-29T01:39:20.833Z,-8.68
2022-12-29T01:41:23.747Z,-8.73
2022-12-29T01:44:03.539Z,-8.73
2022-12-29T01:46:13.275Z,-8.80
2022-12-29T01:48:17.971Z,-8.78
2022-12-29T01:50:31.707Z,-8.71
2022-12-29T01:52:38.802Z,-8.69
2022-12-29T01:54:52.116Z,-8.66
2022-12-29T01:56:57.612Z,-8.66
2022-12-29T01:59:08.048Z,-8.69
2022-12-29T02:01:11.039Z,-8.69
2022-12-29T02:03:14.176Z,-8.72
2022-12-29T02:05:40.748Z,-8.77
2022-12-29T02:07:44.663Z,-8.80
2022-12-29T02:09:52.219Z,-8.79
2022-12-29T02:11:55.492Z,-8.72
2022-12-29T02:14:00.090Z,-8.71
2022-12-29T02:16:11.638Z,-8.72
2022-12-29T02:18:46.189Z,-8.73
2022-12-29T02:21:24.682Z,-8.77
2022-12-29T02:23:48.718Z,-8.75
2022-12-29T02:26:21.905Z,-8.83
2022-12-29T02:29:04.374Z,-8.80
2022-12-29T02:31:12.660Z,-8.72
2022-12-29T02:33:40.665Z,-8.75
2022-12-29T02:36:11.728Z,-8.68
2022-12-29T02:38:39.308Z,-8.69
2022-12-29T02:40:47.493Z,-8.70
2022-12-29T02:43:01.230Z,-8.66
2022-12-29T02:45:14.503Z,-8.58
2022-12-29T02:47:56.219Z,-8.55
2022-12-29T02:50:16.640Z,-8.50
2022-12-29T02:52:24.501Z,-8.61
2022-12-29T02:54:42.873Z,-8.60
2022-12-29T02:56:45.781Z,-8.62
2022-12-29T02:58:48.745Z,-8.60
2022-12-29T03:01:30.349Z,-8.65
2022-12-29T03:03:54.628Z,-8.60
2022-12-29T03:06:23.247Z,-8.59
2022-12-29T03:08:59.987Z,-8.61
2022-12-29T03:11:28.943Z,-8.62
2022-12-29T03:14:04.713Z,-8.59
2022-12-29T03:16:30.421Z,-8.65
2022-12-29T03:18:51.144Z,-8.61
2022-12-29T03:21:04.006Z,-8.64
2022-12-29T03:23:08.555Z,-8.59
2022-12-29T03:25:28.483Z,-8.58
2022-12-29T03:27:36.248Z,-8.57
2022-12-29T03:29:45.219Z,-8.56
2022-12-29T03:31:50.836Z,-8.50
2022-12-29T03:33:56.313Z,-8.55
2022-12-29T03:36:07.540Z,-8.51
2022-12-29T03:38:25.302Z,-8.47
2022-12-29T03:40:30.056Z,-8.44
2022-12-29T03:42:35.659Z,-8.45
2022-12-29T03:44:42.089Z,-8.42
2022-12-29T03:46:44.801Z,-8.40
2022-12-29T03:48:47.520Z,-8.44
2022-12-29T03:50:50.275Z,-8.43
2022-12-29T03:52:52.958Z,-8.38
2022-12-29T03:54:55.670Z,-8.44
2022-12-29T03:56:58.441Z,-8.51
2022-12-29T03:59:01.100Z,-8.50
2022-12-29T04:01:03.949Z,-8.43
2022-12-29T04:03:06.702Z,-8.45
2022-12-29T04:05:09.767Z,-8.44
2022-12-29T04:07:12.469Z,-8.40
2022-12-29T04:09:15.139Z,-8.38
2022-12-29T04:11:17.756Z,-8.42
2022-12-29T04:13:21.387Z,-8.39
2022-12-29T04:15:25.470Z,-8.38
2022-12-29T04:17:28.305Z,-8.41
2022-12-29T04:19:30.920Z,-8.40
2022-12-29T04:21:33.547Z,-8.36
2022-12-29T04:23:38.579Z,-8.37
2022-12-29T04:25:41.299Z,-8.34
2022-12-29T04:27:44.029Z,-8.40
2022-12-29T04:29:46.656Z,-8.37
2022-12-29T04:31:49.347Z,-8.34
2022-12-29T04:33:52.023Z,-8.33
2022-12-29T04:35:55.607Z,-8.33
2022-12-29T04:37:58.330Z,-8.38
2022-12-29T04:40:00.993Z,-8.32
2022-12-29T04:42:03.745Z,-8.37
2022-12-29T04:44:06.648Z,-8.26
2022-12-29T04:46:10.136Z,-8.21
2022-12-29T04:48:13.721Z,-8.20
2022-12-29T04:50:16.439Z,-8.14
2022-12-29T04:52:19.277Z,-8.12
2022-12-29T04:54:21.889Z,-8.11
2022-12-29T04:56:24.516Z,-8.12
2022-12-29T04:58:27.294Z,-8.13
2022-12-29T05:00:29.911Z,-8.10
2022-12-29T05:02:32.721Z,-8.06
2022-12-29T05:04:35.628Z,-8.11
2022-12-29T05:06:38.266Z,-8.10
2022-12-29T05:08:41.054Z,-8.09
2022-12-29T05:10:46.849Z,-8.07
2022-12-29T05:12:49.632Z,-8.04
2022-12-29T05:14:52.563Z,-8.11
2022-12-29T05:16:58.123Z,-8.05
2022-12-29T05:19:00.896Z,-8.05
2022-12-29T05:21:03.682Z,-8.01
2022-12-29T05:23:06.461Z,-7.98
2022-12-29T05:25:09.998Z,-7.95
2022-12-29T05:27:12.787Z,-7.87
2022-12-29T05:29:15.573Z,-7.81
2022-12-29T05:31:18.316Z,-7.80
2022-12-29T05:33:21.637Z,-7.80
2022-12-29T05:35:24.474Z,-7.80
2022-12-29T05:37:27.111Z,-7.80
2022-12-29T05:39:30.976Z,-7.81
2022-12-29T05:41:34.152Z,-7.82
2022-12-29T05:43:37.257Z,-7.84
2022-12-29T05:45:39.888Z,-7.84
2022-12-29T05:47:42.580Z,-7.79
2022-12-29T05:49:45.236Z,-7.79
2022-12-29T05:51:47.963Z,-7.75
2022-12-29T05:53:50.842Z,-7.72
2022-12-29T05:55:53.566Z,-7.74
2022-12-29T05:57:56.194Z,-7.72
2022-12-29T05:59:58.973Z,-7.74
2022-12-29T06:02:01.857Z,-7.63
2022-12-29T06:04:04.944Z,-7.58
2022-12-29T06:06:08.834Z,-7.58
2022-12-29T06:08:13.846Z,-7.50
2022-12-29T06:10:18.410Z,-7.50
2022-12-29T06:12:21.636Z,-7.58
2022-12-29T06:14:24.858Z,-7.53
2022-12-29T06:16:27.707Z,-7.50
2022-12-29T06:18:30.656Z,-7.48
2022-12-29T06:20:33.575Z,-7.42
2022-12-29T06:22:36.889Z,-7.39
2022-12-29T06:24:40.039Z,-7.34
2022-12-29T06:26:43.128Z,-7.30
2022-12-29T06:28:46.395Z,-7.30
2022-12-29T06:30:50.346Z,-7.25
2022-12-29T06:32:53.487Z,-7.20
2022-12-29T06:34:56.153Z,-7.14
2022-12-29T06:36:59.041Z,-7.11
2022-12-29T06:39:01.942Z,-7.12
2022-12-29T06:41:04.905Z,-7.06
2022-12-29T06:43:07.602Z,-7.03
2022-12-29T06:45:10.965Z,-7.04
2022-12-29T06:47:14.877Z,-7.03
2022-12-29T06:49:19.088Z,-6.93
2022-12-29T06:51:22.712Z,-6.88
2022-12-29T06:53:27.418Z,-6.84
2022-12-29T06:55:30.853Z,-6.89
2022-12-29T06:57:34.137Z,-6.86
2022-12-29T06:59:36.965Z,-6.84
2022-12-29T07:01:39.997Z,-6.86
2022-12-29T07:03:44.424Z,-6.86
2022-12-29T07:05:47.437Z,-6.85
2022-12-29T07:07:50.325Z,-6.89
2022-12-29T07:09:53.395Z,-6.78
2022-12-29T07:11:56.528Z,-6.69
2022-12-29T07:14:04.582Z,-6.71
2022-12-29T07:16:08.909Z,-6.69
2022-12-29T07:18:11.579Z,-6.67
2022-12-29T07:20:14.603Z,-6.66
2022-12-29T07:22:17.495Z,-6.77
2022-12-29T07:24:20.178Z,-6.66
2022-12-29T07:26:23.284Z,-6.60
2022-12-29T07:28:26.511Z,-6.61
2022-12-29T07:30:29.643Z,-6.61
2022-12-29T07:32:36.059Z,-6.51
2022-12-29T07:34:40.837Z,-6.45
2022-12-29T07:36:43.769Z,-6.33
2022-12-29T07:38:46.635Z,-6.30
2022-12-29T07:40:49.402Z,-6.38
2022-12-29T07:42:52.122Z,-6.31
2022-12-29T07:44:55.364Z,-6.34
2022-12-29T07:46:58.972Z,-6.31
2022-12-29T07:49:02.037Z,-6.33
2022-12-29T07:51:04.766Z,-6.15
2022-12-29T07:53:07.453Z,-6.08
2022-12-29T07:55:10.476Z,-6.15
2022-12-29T07:57:13.454Z,-6.13
2022-12-29T07:59:16.137Z,-6.06
2022-12-29T08:01:19.269Z,-6.00
2022-12-29T08:03:22.725Z,-5.96
2022-12-29T08:05:25.549Z,-5.95
2022-12-29T08:07:28.323Z,-5.89
2022-12-29T08:09:31.004Z,-5.83
2022-12-29T08:11:33.636Z,-5.85
2022-12-29T08:13:36.483Z,-5.82
2022-12-29T08:15:39.449Z,-5.78
2022-12-29T08:17:42.167Z,-5.70
2022-12-29T08:19:44.974Z,-5.74
2022-12-29T08:21:47.777Z,-5.68
2022-12-29T08:23:50.458Z,-5.68
2022-12-29T08:26:06.423Z,-5.59
2022-12-29T08:28:09.035Z,-5.56
2022-12-29T08:30:12.333Z,-5.51
2022-12-29T08:32:15.394Z,-5.62
2022-12-29T08:34:18.265Z,-5.77
2022-12-29T08:36:30.938Z,-5.69
2022-12-29T08:38:37.300Z,-5.61
2022-12-29T08:40:42.848Z,-5.63
2022-12-29T08:42:45.614Z,-5.65
2022-12-29T08:44:48.305Z,-5.64
2022-12-29T08:46:51.139Z,-5.71
2022-12-29T08:48:54.965Z,-5.70
2022-12-29T08:50:58.356Z,-5.72
2022-12-29T08:53:01.175Z,-5.70
2022-12-29T08:55:03.983Z,-5.68
2022-12-29T08:57:06.817Z,-5.59
2022-12-29T08:59:09.731Z,-5.61
2022-12-29T09:01:12.542Z,-5.56
2022-12-29T09:03:25.912Z,-5.56
2022-12-29T09:05:39.359Z,-5.62
2022-12-29T09:07:42.025Z,-5.62
2022-12-29T09:09:44.670Z,-5.65
2022-12-29T09:11:47.906Z,-5.63
2022-12-29T09:13:50.671Z,-5.74
2022-12-29T09:16:00.544Z,-5.82
2022-12-29T09:18:03.530Z,-5.76
2022-12-29T09:20:07.956Z,-5.75
2022-12-29T09:22:10.677Z,-5.78
2022-12-29T09:24:13.509Z,-5.73
2022-12-29T09:26:16.180Z,-5.79
2022-12-29T09:28:18.903Z,-5.75
2022-12-29T09:30:23.865Z,-5.77
2022-12-29T09:32:31.144Z,-5.78
2022-12-29T09:34:36.276Z,-5.75
2022-12-29T09:36:39.105Z,-5.65
2022-12-29T09:38:41.770Z,-5.59
2022-12-29T09:40:50.470Z,-5.45
2022-12-29T09:43:22.372Z,-5.36
2022-12-29T09:45:33.592Z,-5.28
2022-12-29T09:47:37.287Z,-5.26
2022-12-29T09:49:53.549Z,-5.23
2022-12-29T09:52:16.373Z,-5.29
2022-12-29T09:55:04.996Z,-5.32
2022-12-29T09:57:51.035Z,-5.47
2022-12-29T10:00:05.420Z,-5.46
2022-12-29T10:02:19.758Z,-5.38
2022-12-29T10:04:22.576Z,-5.38
2022-12-29T10:07:28.710Z,-5.29
2022-12-29T10:09:44.358Z,-5.30
2022-12-29T10:12:14.754Z,-5.30
2022-12-29T10:14:38.461Z,-5.26
2022-12-29T10:17:26.003Z,-5.19
2022-12-29T10:19:48.798Z,-5.15
2022-12-29T10:22:19.403Z,-5.18
2022-12-29T10:24:23.246Z,-5.23
2022-12-29T10:26:32.443Z,-5.39
2022-12-29T10:28:46.652Z,-5.33
2022-12-29T10:30:51.065Z,-5.34
2022-12-29T10:32:58.517Z,-5.44
2022-12-29T10:35:17.436Z,-5.48
2022-12-29T10:37:44.753Z,-5.57
2022-12-29T10:39:56.436Z,-5.50
2022-12-29T10:42:10.774Z,-5.45
2022-12-29T10:44:18.273Z,-5.54
2022-12-29T10:46:26.629Z,-5.51
2022-12-29T10:48:34.610Z,-5.52
2022-12-29T10:50:44.559Z,-5.49
2022-12-29T10:52:48.799Z,-5.52
2022-12-29T10:54:55.694Z,-5.59
2022-12-29T10:57:10.261Z,-5.52
2022-12-29T10:59:24.145Z,-5.49
2022-12-29T11:01:37.367Z,-5.50
2022-12-29T11:03:49.507Z,-5.57
2022-12-29T11:06:14.159Z,-5.61
2022-12-29T11:08:23.697Z,-5.69
2022-12-29T11:10:35.351Z,-5.75
2022-12-29T11:12:38.060Z,-5.77
2022-12-29T11:14:42.593Z,-5.78
2022-12-29T11:16:46.347Z,-5.80
2022-12-29T11:18:49.153Z,-5.71
2022-12-29T11:21:00.549Z,-5.68
2022-12-29T11:23:05.688Z,-5.62
2022-12-29T11:25:14.060Z,-5.58
2022-12-29T11:27:25.059Z,-5.66
2022-12-29T11:29:39.277Z,-5.65
2022-12-29T11:31:46.784Z,-5.59
2022-12-29T11:33:49.586Z,-5.59
2022-12-29T11:35:52.330Z,-5.63
2022-12-29T11:37:59.277Z,-5.70
2022-12-29T11:40:09.404Z,-5.71
2022-12-29T11:42:21.344Z,-5.75
2022-12-29T11:44:24.327Z,-5.76
2022-12-29T11:46:30.908Z,-5.79
2022-12-29T11:48:42.340Z,-5.84
2022-12-29T11:50:55.935Z,-5.89
2022-12-29T11:53:07.300Z,-5.93
2022-12-29T11:55:26.725Z,-5.92
2022-12-29T11:57:30.265Z,-5.89
2022-12-29T11:59:41.742Z,-5.90
2022-12-29T12:01:46.033Z,-5.88
2022-12-29T12:04:16.507Z,-5.88
2022-12-29T12:06:25.195Z,-5.92
2022-12-29T12:08:52.862Z,-5.94
2022-12-29T12:11:21.921Z,-6.02
2022-12-29T12:13:27.691Z,-6.07
2022-12-29T12:15:45.899Z,-6.13
2022-12-29T12:18:05.037Z,-6.13
2022-12-29T12:20:26.258Z,-6.09
2022-12-29T12:22:58.125Z,-6.07
2022-12-29T12:25:07.616Z,-6.06
2022-12-29T12:27:19.071Z,-6.10
2022-12-29T12:29:32.621Z,-6.10
2022-12-29T12:31:45.730Z,-6.11
2022-12-29T12:33:55.138Z,-6.15
2022-12-29T12:36:22.616Z,-6.17
2022-12-29T12:38:31.387Z,-6.15
2022-12-29T12:41:07.053Z,-6.20
2022-12-29T12:43:12.551Z,-6.20
2022-12-29T12:45:38.788Z,-6.19
2022-12-29T12:47:59.382Z,-6.18
2022-12-29T12:50:39.548Z,-6.18
2022-12-29T12:53:03.240Z,-6.20
2022-12-29T12:55:27.482Z,-6.22
2022-12-29T12:58:10.971Z,-6.26
2022-12-29T13:00:21.635Z,-6.26
2022-12-29T13:02:36.467Z,-6.28
2022-12-29T13:04:45.229Z,-6.29
2022-12-29T13:07:07.329Z,-6.31
2022-12-29T13:09:24.698Z,-6.39
2022-12-29T13:11:39.168Z,-6.43
2022-12-29T13:13:50.652Z,-6.46
2022-12-29T13:16:14.519Z,-6.44
2022-12-29T13:18:38.493Z,-6.46
2022-12-29T13:20:47.676Z,-6.45
2022-12-29T13:23:02.314Z,-6.43
2022-12-29T13:25:28.731Z,-6.45
2022-12-29T13:27:49.973Z,-6.47
2022-12-29T13:29:55.432Z,-6.50
2022-12-29T13:32:18.746Z,-6.51
2022-12-29T13:34:33.429Z,-6.51
2022-12-29T13:36:45.388Z,-6.49
2022-12-29T13:38:49.911Z,-6.53
2022-12-29T13:40:58.018Z,-6.54
2022-12-29T13:43:02.001Z,-6.56
2022-12-29T13:45:13.407Z,-6.56
2022-12-29T13:47:26.456Z,-6.62
2022-12-29T13:49:30.060Z,-6.68
2022-12-29T13:51:34.661Z,-6.66
2022-12-29T13:53:55.699Z,-6.65
2022-12-29T13:56:25.784Z,-6.67
2022-12-29T13:58:49.698Z,-6.68
2022-12-29T14:00:54.950Z,-6.71
2022-12-29T14:03:28.275Z,-6.72
2022-12-29T14:05:33.915Z,-6.78
2022-12-29T14:07:41.043Z,-6.78
2022-12-29T14:09:52.135Z,-6.79
2022-12-29T14:11:55.289Z,-6.81
2022-12-29T14:13:58.792Z,-6.81
2022-12-29T14:16:02.901Z,-6.77
2022-12-29T14:18:23.259Z,-6.73
2022-12-29T14:20:26.041Z,-6.70
2022-12-29T14:22:33.358Z,-6.70
2022-12-29T14:24:36.239Z,-6.69
2022-12-29T14:26:38.901Z,-6.69
2022-12-29T14:28:44.890Z,-6.71
2022-12-29T14:31:16.899Z,-6.69
2022-12-29T14:33:20.233Z,-6.72
2022-12-29T14:35:42.363Z,-6.74
2022-12-29T14:37:45.047Z,-6.79
2022-12-29T14:39:47.846Z,-6.79
2022-12-29T14:42:20.727Z,-6.83
2022-12-29T14:44:23.439Z,-6.82
2022-12-29T14:46:27.013Z,-6.85
2022-12-29T14:48:37.378Z,-6.87
2022-12-29T14:50:45.030Z,-6.89
2022-12-29T14:53:03.112Z,-6.89
2022-12-29T14:55:19.244Z,-6.89
2022-12-29T14:57:42.951Z,-6.92
2022-12-29T14:59:48.117Z,-6.95
2022-12-29T15:01:57.024Z,-6.94
2022-12-29T15:04:06.643Z,-6.93
2022-12-29T15:06:18.000Z,-6.91
2022-12-29T15:08:34.378Z,-6.92
2022-12-29T15:10:46.693Z,-6.99
2022-12-29T15:12:54.229Z,-6.96
2022-12-29T15:14:59.470Z,-6.96
2022-12-29T15:17:10.737Z,-6.94
2022-12-29T15:19:31.447Z,-6.95
2022-12-29T15:21:36.762Z,-6.93
2022-12-29T15:23:39.536Z,-6.91
2022-12-29T15:25:56.437Z,-6.91
2022-12-29T15:28:05.655Z,-6.94
2022-12-29T15:30:18.047Z,-6.95
2022-12-29T15:32:24.118Z,-6.97
2022-12-29T15:34:30.575Z,-7.00
2022-12-29T15:36:39.221Z,-6.99
2022-12-29T15:38:41.905Z,-6.99
2022-12-29T15:40:48.034Z,-6.96
2022-12-29T15:43:07.690Z,-6.95
2022-12-29T15:45:14.963Z,-6.93
2022-12-29T15:47:21.234Z,-6.95
2022-12-29T15:49:31.888Z,-6.92
2022-12-29T15:51:39.464Z,-6.97
2022-12-29T15:53:42.472Z,-6.96
2022-12-29T15:55:46.397Z,-6.97
2022-12-29T15:57:48.984Z,-6.99
2022-12-29T15:59:52.119Z,-6.99
2022-12-29T16:01:56.908Z,-7.00
2022-12-29T16:04:01.886Z,-6.98
2022-12-29T16:06:25.880Z,-6.95
2022-12-29T16:08:34.963Z,-6.97
2022-12-29T16:10:41.852Z,-6.96
2022-12-29T16:12:44.546Z,-6.94
2022-12-29T16:14:56.336Z,-6.96
2022-12-29T16:17:03.069Z,-6.92
2022-12-29T16:19:25.821Z,-6.94
2022-12-29T16:21:35.988Z,-6.98
2022-12-29T16:23:38.894Z,-6.91
2022-12-29T16:25:42.473Z,-6.90
2022-12-29T16:27:45.464Z,-6.91
2022-12-29T16:29:54.611Z,-6.90
2022-12-29T16:32:04.287Z,-6.91
2022-12-29T16:34:26.999Z,-6.95
2022-12-29T16:36:32.459Z,-6.97
2022-12-29T16:38:35.690Z,-6.99
2022-12-29T16:41:28.907Z,-6.99
2022-12-29T16:43:35.991Z,-7.00
2022-12-29T16:46:01.334Z,-7.05
2022-12-29T16:48:06.605Z,-7.03
2022-12-29T16:50:17.698Z,-7.06
2022-12-29T16:52:24.681Z,-7.11
2022-12-29T16:54:52.747Z,-7.11
2022-12-29T16:56:56.163Z,-7.14
2022-12-29T16:59:20.308Z,-7.14
2022-12-29T17:01:23.233Z,-7.15
2022-12-29T17:03:41.598Z,-7.15
2022-12-29T17:05:44.356Z,-7.12
2022-12-29T17:07:47.589Z,-7.13
2022-12-29T17:09:51.542Z,-7.14
2022-12-29T17:12:05.012Z,-7.20
2022-12-29T17:14:37.780Z,-7.14
2022-12-29T17:16:40.471Z,-7.17
2022-12-29T17:18:43.204Z,-7.25
2022-12-29T17:20:45.923Z,-7.27
2022-12-29T17:22:49.701Z,-7.33
2022-12-29T17:24:53.641Z,-7.37
2022-12-29T17:27:00.002Z,-7.40
2022-12-29T17:29:02.995Z,-7.46
2022-12-29T17:31:07.914Z,-7.47
2022-12-29T17:33:14.598Z,-7.50
2022-12-29T17:35:19.117Z,-7.54
2022-12-29T17:37:30.859Z,-7.54
2022-12-29T17:39:33.463Z,-7.47
2022-12-29T17:41:38.347Z,-7.48
2022-12-29T17:43:41.162Z,-7.45
2022-12-29T17:45:53.450Z,-7.41
2022-12-29T17:47:56.767Z,-7.37
2022-12-29T17:50:00.238Z,-7.36
2022-12-29T17:52:03.001Z,-7.30
2022-12-29T17:54:05.773Z,-7.29
2022-12-29T17:56:10.343Z,-7.29
2022-12-29T17:58:21.886Z,-7.26
2022-12-29T18:00:28.148Z,-7.25
2022-12-29T18:02:32.795Z,-7.26
2022-12-29T18:04:35.533Z,-7.25
2022-12-29T18:06:38.220Z,-7.23
2022-12-29T18:08:42.093Z,-7.23
2022-12-29T18:10:45.068Z,-7.18
2022-12-29T18:12:49.778Z,-7.16
2022-12-29T18:14:52.429Z,-7.15
2022-12-29T18:16:55.619Z,-7.15
2022-12-29T18:18:58.296Z,-7.14
2022-12-29T18:21:00.956Z,-7.14
2022-12-29T18:23:04.168Z,-7.12
2022-12-29T18:25:23.821Z,-7.14
2022-12-29T18:27:27.072Z,-7.13
2022-12-29T18:29:29.700Z,-7.19
2022-12-29T18:31:34.439Z,-7.14
2022-12-29T18:33:37.260Z,-7.17
2022-12-29T18:35:48.388Z,-7.18
2022-12-29T18:37:51.025Z,-7.16
2022-12-29T18:39:53.775Z,-7.14
2022-12-29T18:41:56.431Z,-7.19
2022-12-29T18:44:00.345Z,-7.25
2022-12-29T18:46:02.986Z,-7.26
2022-12-29T18:48:06.064Z,-7.29
2022-12-29T18:50:08.796Z,-7.30
2022-12-29T18:52:13.956Z,-7.27
2022-12-29T18:54:29.365Z,-7.26
2022-12-29T18:56:32.281Z,-7.27
2022-12-29T18:58:35.098Z,-7.21
2022-12-29T19:00:39.226Z,-7.21
2022-12-29T19:02:42.003Z,-7.16
2022-12-29T19:04:46.903Z,-7.13
2022-12-29T19:06:52.851Z,-7.04
2022-12-29T19:08:55.524Z,-7.00
2022-12-29T19:10:59.857Z,-6.98
2022-12-29T19:13:02.894Z,-6.94
2022-12-29T19:15:07.311Z,-6.92
2022-12-29T19:17:13.599Z,-6.88
2022-12-29T19:19:17.647Z,-6.86
2022-12-29T19:21:21.750Z,-6.86
2022-12-29T19:23:27.118Z,-6.84
2022-12-29T19:25:30.870Z,-6.87
2022-12-29T19:27:35.150Z,-6.84
2022-12-29T19:29:38.071Z,-6.90
2022-12-29T19:31:40.821Z,-6.84
2022-12-29T19:33:43.538Z,-6.84
2022-12-29T19:35:46.579Z,-6.83
2022-12-29T19:37:49.285Z,-6.76
2022-12-29T19:39:53.448Z,-6.68
2022-12-29T19:42:01.921Z,-6.65
2022-12-29T19:44:08.602Z,-6.58
2022-12-29T19:46:17.075Z,-6.47
2022-12-29T19:48:21.648Z,-6.40
2022-12-29T19:50:24.415Z,-6.36
2022-12-29T19:52:28.313Z,-6.30
2022-12-29T19:54:30.965Z,-6.30
2022-12-29T19:56:33.727Z,-6.27
2022-12-29T19:58:42.621Z,-6.23
2022-12-29T20:00:49.512Z,-6.22
2022-12-29T20:02:54.966Z,-6.19
2022-12-29T20:04:57.919Z,-6.18
2022-12-29T20:07:00.612Z,-6.19
2022-12-29T20:09:03.743Z,-6.18
2022-12-29T20:11:13.218Z,-6.19
2022-12-29T20:13:15.850Z,-6.14
2022-12-29T20:15:18.840Z,-6.15
2022-12-29T20:17:27.469Z,-6.14
2022-12-29T20:19:42.299Z,-6.18
2022-12-29T20:21:45.216Z,-6.18
2022-12-29T20:23:48.757Z,-6.19
2022-12-29T20:25:56.596Z,-6.18
2022-12-29T20:27:59.368Z,-6.18
2022-12-29T20:30:02.303Z,-6.21
2022-12-29T20:32:13.325Z,-6.21
2022-12-29T20:34:16.551Z,-6.25
2022-12-29T20:36:25.853Z,-6.28
2022-12-29T20:38:28.818Z,-6.27
2022-12-29T20:40:32.176Z,-6.31
2022-12-29T20:42:34.945Z,-6.32
2022-12-29T20:44:38.385Z,-6.29
2022-12-29T20:46:44.280Z,-6.31
2022-12-29T20:48:47.449Z,-6.28
2022-12-29T20:50:50.099Z,-6.26
2022-12-29T20:52:53.641Z,-6.24
2022-12-29T20:54:56.304Z,-6.23
2022-12-29T20:56:58.984Z,-6.31
2022-12-29T20:59:26.933Z,-6.24
2022-12-29T21:01:26.644Z,-6.26
2022-12-29T21:03:29.717Z,-6.22
2022-12-29T21:05:32.371Z,-6.25
2022-12-29T21:07:35.074Z,-6.23
2022-12-29T21:09:38.058Z,-6.21
2022-12-29T21:11:40.733Z,-6.17
2022-12-29T21:13:43.555Z,-6.14
2022-12-29T21:15:46.859Z,-6.11
2022-12-29T21:17:49.577Z,-6.12
2022-12-29T21:19:52.484Z,-6.12
2022-12-29T21:21:55.253Z,-6.13
2022-12-29T21:24:05.707Z,-6.13
2022-12-29T21:26:15.955Z,-6.14
2022-12-29T21:28:18.785Z,-6.13
2022-12-29T21:30:21.790Z,-6.04
2022-12-29T21:32:24.723Z,-6.04
2022-12-29T21:34:27.525Z,-6.02
2022-12-29T21:36:31.004Z,-6.01
2022-12-29T21:38:33.788Z,-6.04
2022-12-29T21:40:38.271Z,-6.00
2022-12-29T21:42:40.979Z,-6.02
2022-12-29T21:45:02.318Z,-6.01
2022-12-29T21:47:06.315Z,-5.98
2022-12-29T21:49:09.058Z,-5.95
2022-12-29T21:51:32.973Z,-5.98
2022-12-29T21:53:39.911Z,-6.00
2022-12-29T21:55:42.549Z,-5.97
2022-12-29T21:58:03.899Z,-5.93
2022-12-29T22:00:27.040Z,-5.89
2022-12-29T22:02:48.118Z,-5.89
2022-12-29T22:05:09.510Z,-5.89
2022-12-29T22:07:32.409Z,-5.87
2022-12-29T22:09:54.032Z,-5.84
2022-12-29T22:12:15.102Z,-5.85
2022-12-29T22:14:17.909Z,-5.83
2022-12-29T22:16:20.572Z,-5.84
2022-12-29T22:18:23.348Z,-5.85
2022-12-29T22:20:29.030Z,-5.87
2022-12-29T22:22:31.722Z,-5.94
2022-12-29T22:24:34.443Z,-5.93
2022-12-29T22:26:37.131Z,-5.98
2022-12-29T22:28:41.800Z,-5.97
2022-12-29T22:30:44.784Z,-5.98
2022-12-29T22:32:47.489Z,-5.99
2022-12-29T22:34:50.478Z,-6.05
2022-12-29T22:36:53.324Z,-6.05
2022-12-29T22:38:56.060Z,-6.04
2022-12-29T22:41:00.682Z,-6.05
2022-12-29T22:43:07.968Z,-6.05
2022-12-29T22:45:14.163Z,-6.07
2022-12-29T22:47:16.816Z,-6.06
2022-12-29T22:49:19.445Z,-6.01
2022-12-29T22:51:22.177Z,-5.97
2022-12-29T22:53:24.921Z,-5.92
2022-12-29T22:55:27.523Z,-5.87
2022-12-29T22:57:31.539Z,-5.79
2022-12-29T22:59:34.887Z,-5.81
2022-12-29T23:01:37.921Z,-5.76
2022-12-29T23:03:41.291Z,-5.71
2022-12-29T23:05:44.029Z,-5.69
2022-12-29T23:07:46.738Z,-5.75
2022-12-29T23:09:49.408Z,-5.79
2022-12-29T23:11:53.584Z,-5.78
2022-12-29T23:13:56.271Z,-5.80
2022-12-29T23:15:59.045Z,-5.81
2022-12-29T23:18:01.856Z,-5.82
2022-12-29T23:20:08.697Z,-5.84
2022-12-29T23:22:11.334Z,-5.96
2022-12-29T23:24:15.204Z,-5.91
2022-12-29T23:26:20.536Z,-6.02
2022-12-29T23:28:23.258Z,-6.04
2022-12-29T23:30:26.001Z,-6.08
2022-12-29T23:32:28.752Z,-6.06
2022-12-29T23:34:31.349Z,-6.07
2022-12-29T23:36:34.897Z,-6.04
2022-12-29T23:38:37.545Z,-6.02
2022-12-29T23:40:40.178Z,-6.02
2022-12-29T23:42:42.950Z,-6.03
2022-12-29T23:44:45.637Z,-5.98
2022-12-29T23:46:48.318Z,-5.99
2022-12-29T23:48:51.646Z,-5.97
2022-12-29T23:50:55.739Z,-5.92
2022-12-29T23:52:58.696Z,-5.86
2022-12-29T23:55:01.370Z,-5.87
2022-12-29T23:57:04.040Z,-5.80
2022-12-29T23:59:06.868Z,-5.78
